sensor_id;sensor_type;location;lat;lon;timestamp;P1;durP1;ratioP1;P2;durP2;ratioP2
69551;SDS011;63774;45.292;11.784;2024-01-30T00:00:24;13.80;;;9.30;;
69551;SDS011;63774;45.292;11.784;2024-01-30T00:02:49;11.10;;;8.20;;
69551;SDS011;63774;45.292;11.784;2024-01-30T00:05:15;12.50;;;8.50;;
69551;SDS011;63774;45.292;11.784;2024-01-30T00:07:40;11.40;;;8.00;;
69551;SDS011;63774;45.292;11.784;2024-01-30T00:10:06;13.60;;;8.80;;
69551;SDS011;63774;45.292;11.784;2024-01-30T00:12:31;11.40;;;8.00;;
69551;SDS011;63774;45.292;11.784;2024-01-30T00:14:57;12.60;;;8.30;;
69551;SDS011;63774;45.292;11.784;2024-01-30T00:17:23;11.50;;;8.00;;
69551;SDS011;63774;45.292;11.784;2024-01-30T00:19:50;12.10;;;8.40;;
69551;SDS011;63774;45.292;11.784;2024-01-30T00:22:15;11.70;;;8.30;;
69551;SDS011;63774;45.292;11.784;2024-01-30T00:24:41;10.80;;;7.80;;
69551;SDS011;63774;45.292;11.784;2024-01-30T00:27:06;10.70;;;7.70;;
69551;SDS011;63774;45.292;11.784;2024-01-30T00:29:33;11.20;;;7.80;;
69551;SDS011;63774;45.292;11.784;2024-01-30T00:31:59;11.30;;;7.80;;
69551;SDS011;63774;45.292;11.784;2024-01-30T00:34:25;11.60;;;8.20;;
69551;SDS011;63774;45.292;11.784;2024-01-30T00:36:50;12.20;;;8.20;;
69551;SDS011;63774;45.292;11.784;2024-01-30T00:39:16;10.40;;;7.40;;
69551;SDS011;63774;45.292;11.784;2024-01-30T00:41:41;11.00;;;7.90;;
69551;SDS011;63774;45.292;11.784;2024-01-30T00:44:06;10.90;;;8.00;;
69551;SDS011;63774;45.292;11.784;2024-01-30T00:46:32;12.20;;;8.20;;
69551;SDS011;63774;45.292;11.784;2024-01-30T00:48:57;11.30;;;7.70;;
69551;SDS011;63774;45.292;11.784;2024-01-30T00:51:23;11.00;;;7.60;;
69551;SDS011;63774;45.292;11.784;2024-01-30T00:53:48;11.30;;;7.70;;
69551;SDS011;63774;45.292;11.784;2024-01-30T00:56:14;11.50;;;7.60;;
69551;SDS011;63774;45.292;11.784;2024-01-30T00:58:43;11.50;;;8.40;;
69551;SDS011;63774;45.292;11.784;2024-01-30T01:01:09;11.30;;;7.40;;
69551;SDS011;63774;45.292;11.784;2024-01-30T01:03:34;10.10;;;7.40;;
69551;SDS011;63774;45.292;11.784;2024-01-30T01:06:00;11.40;;;8.00;;
69551;SDS011;63774;45.292;11.784;2024-01-30T01:08:25;10.60;;;7.30;;
69551;SDS011;63774;45.292;11.784;2024-01-30T01:10:50;11.20;;;8.20;;
69551;SDS011;63774;45.292;11.784;2024-01-30T01:13:16;10.80;;;7.80;;
69551;SDS011;63774;45.292;11.784;2024-01-30T01:15:41;10.50;;;7.90;;
69551;SDS011;63774;45.292;11.784;2024-01-30T01:18:08;11.20;;;8.20;;
69551;SDS011;63774;45.292;11.784;2024-01-30T01:20:33;12.10;;;7.50;;
69551;SDS011;63774;45.292;11.784;2024-01-30T01:22:58;10.30;;;8.00;;
69551;SDS011;63774;45.292;11.784;2024-01-30T01:25:24;11.20;;;7.50;;
69551;SDS011;63774;45.292;11.784;2024-01-30T01:27:49;10.20;;;7.40;;
69551;SDS011;63774;45.292;11.784;2024-01-30T01:30:17;11.40;;;7.80;;
69551;SDS011;63774;45.292;11.784;2024-01-30T01:32:50;11.30;;;8.00;;
69551;SDS011;63774;45.292;11.784;2024-01-30T01:35:20;11.30;;;7.80;;
69551;SDS011;63774;45.292;11.784;2024-01-30T01:37:47;12.20;;;8.00;;
69551;SDS011;63774;45.292;11.784;2024-01-30T01:40:19;11.80;;;8.00;;
69551;SDS011;63774;45.292;11.784;2024-01-30T01:42:49;11.80;;;8.20;;
69551;SDS011;63774;45.292;11.784;2024-01-30T01:45:15;12.80;;;8.40;;
69551;SDS011;63774;45.292;11.784;2024-01-30T01:47:41;11.00;;;7.80;;
69551;SDS011;63774;45.292;11.784;2024-01-30T01:50:07;10.20;;;7.90;;
69551;SDS011;63774;45.292;11.784;2024-01-30T01:52:33;10.40;;;7.60;;
69551;SDS011;63774;45.292;11.784;2024-01-30T01:54:59;11.00;;;7.80;;
69551;SDS011;63774;45.292;11.784;2024-01-30T01:57:25;10.80;;;7.90;;
69551;SDS011;63774;45.292;11.784;2024-01-30T01:59:51;10.90;;;7.40;;
69551;SDS011;63774;45.292;11.784;2024-01-30T02:02:17;10.70;;;7.30;;
69551;SDS011;63774;45.292;11.784;2024-01-30T02:04:44;12.50;;;7.80;;
69551;SDS011;63774;45.292;11.784;2024-01-30T02:07:10;11.30;;;7.60;;
69551;SDS011;63774;45.292;11.784;2024-01-30T02:09:36;11.10;;;7.80;;
69551;SDS011;63774;45.292;11.784;2024-01-30T02:12:01;10.30;;;7.50;;
69551;SDS011;63774;45.292;11.784;2024-01-30T02:14:27;11.30;;;7.20;;
69551;SDS011;63774;45.292;11.784;2024-01-30T02:16:52;12.70;;;7.90;;
69551;SDS011;63774;45.292;11.784;2024-01-30T02:19:18;9.80;;;7.60;;
69551;SDS011;63774;45.292;11.784;2024-01-30T02:21:44;11.50;;;7.90;;
69551;SDS011;63774;45.292;11.784;2024-01-30T02:24:11;10.10;;;7.50;;
69551;SDS011;63774;45.292;11.784;2024-01-30T02:26:36;11.00;;;7.80;;
69551;SDS011;63774;45.292;11.784;2024-01-30T02:29:02;10.30;;;7.20;;
69551;SDS011;63774;45.292;11.784;2024-01-30T02:31:27;10.90;;;7.40;;
69551;SDS011;63774;45.292;11.784;2024-01-30T02:33:53;11.60;;;8.30;;
69551;SDS011;63774;45.292;11.784;2024-01-30T02:36:18;11.60;;;8.00;;
69551;SDS011;63774;45.292;11.784;2024-01-30T02:38:43;10.60;;;7.70;;
69551;SDS011;63774;45.292;11.784;2024-01-30T02:41:11;11.50;;;8.00;;
69551;SDS011;63774;45.292;11.784;2024-01-30T02:43:37;10.10;;;7.50;;
69551;SDS011;63774;45.292;11.784;2024-01-30T02:46:02;10.70;;;8.10;;
69551;SDS011;63774;45.292;11.784;2024-01-30T02:48:28;10.80;;;7.80;;
69551;SDS011;63774;45.292;11.784;2024-01-30T02:50:53;10.40;;;8.00;;
69551;SDS011;63774;45.292;11.784;2024-01-30T02:53:18;10.60;;;7.50;;
69551;SDS011;63774;45.292;11.784;2024-01-30T02:55:44;10.90;;;8.00;;
69551;SDS011;63774;45.292;11.784;2024-01-30T02:58:09;10.10;;;7.40;;
69551;SDS011;63774;45.292;11.784;2024-01-30T03:00:35;10.40;;;7.50;;
69551;SDS011;63774;45.292;11.784;2024-01-30T03:03:00;9.60;;;7.60;;
69551;SDS011;63774;45.292;11.784;2024-01-30T03:05:27;10.40;;;7.40;;
69551;SDS011;63774;45.292;11.784;2024-01-30T03:07:52;11.10;;;8.10;;
69551;SDS011;63774;45.292;11.784;2024-01-30T03:10:17;9.30;;;7.10;;
69551;SDS011;63774;45.292;11.784;2024-01-30T03:12:44;10.20;;;7.50;;
69551;SDS011;63774;45.292;11.784;2024-01-30T03:15:09;10.10;;;7.40;;
69551;SDS011;63774;45.292;11.784;2024-01-30T03:17:34;10.10;;;7.50;;
69551;SDS011;63774;45.292;11.784;2024-01-30T03:20:01;9.40;;;7.30;;
69551;SDS011;63774;45.292;11.784;2024-01-30T03:22:28;10.00;;;7.30;;
69551;SDS011;63774;45.292;11.784;2024-01-30T03:24:54;10.80;;;7.60;;
69551;SDS011;63774;45.292;11.784;2024-01-30T03:27:19;9.30;;;7.20;;
69551;SDS011;63774;45.292;11.784;2024-01-30T03:29:45;10.50;;;7.50;;
69551;SDS011;63774;45.292;11.784;2024-01-30T03:32:10;10.20;;;7.70;;
69551;SDS011;63774;45.292;11.784;2024-01-30T03:34:36;8.90;;;7.20;;
69551;SDS011;63774;45.292;11.784;2024-01-30T03:37:01;9.70;;;7.50;;
69551;SDS011;63774;45.292;11.784;2024-01-30T03:39:27;9.50;;;7.20;;
69551;SDS011;63774;45.292;11.784;2024-01-30T03:41:52;11.40;;;8.10;;
69551;SDS011;63774;45.292;11.784;2024-01-30T03:44:18;10.50;;;7.70;;
69551;SDS011;63774;45.292;11.784;2024-01-30T03:46:43;10.20;;;7.50;;
69551;SDS011;63774;45.292;11.784;2024-01-30T03:49:09;10.60;;;7.40;;
69551;SDS011;63774;45.292;11.784;2024-01-30T03:51:34;10.50;;;7.30;;
69551;SDS011;63774;45.292;11.784;2024-01-30T03:54:00;10.40;;;7.30;;
69551;SDS011;63774;45.292;11.784;2024-01-30T03:56:25;9.50;;;7.30;;
69551;SDS011;63774;45.292;11.784;2024-01-30T03:58:51;10.10;;;7.20;;
69551;SDS011;63774;45.292;11.784;2024-01-30T04:01:16;9.40;;;7.20;;
69551;SDS011;63774;45.292;11.784;2024-01-30T04:03:42;8.90;;;6.90;;
69551;SDS011;63774;45.292;11.784;2024-01-30T04:06:09;9.60;;;7.40;;
69551;SDS011;63774;45.292;11.784;2024-01-30T04:08:34;9.70;;;7.20;;
69551;SDS011;63774;45.292;11.784;2024-01-30T04:11:06;9.10;;;7.20;;
69551;SDS011;63774;45.292;11.784;2024-01-30T04:13:34;9.90;;;7.10;;
69551;SDS011;63774;45.292;11.784;2024-01-30T04:16:00;9.80;;;7.10;;
69551;SDS011;63774;45.292;11.784;2024-01-30T04:18:29;8.60;;;6.70;;
69551;SDS011;63774;45.292;11.784;2024-01-30T04:20:55;9.10;;;6.80;;
69551;SDS011;63774;45.292;11.784;2024-01-30T04:23:21;8.60;;;6.80;;
69551;SDS011;63774;45.292;11.784;2024-01-30T04:25:46;9.10;;;7.20;;
69551;SDS011;63774;45.292;11.784;2024-01-30T04:28:12;9.90;;;7.00;;
69551;SDS011;63774;45.292;11.784;2024-01-30T04:30:38;8.80;;;6.70;;
69551;SDS011;63774;45.292;11.784;2024-01-30T04:33:04;10.00;;;7.00;;
69551;SDS011;63774;45.292;11.784;2024-01-30T04:35:29;8.80;;;6.60;;
69551;SDS011;63774;45.292;11.784;2024-01-30T04:37:55;8.70;;;6.70;;
69551;SDS011;63774;45.292;11.784;2024-01-30T04:40:21;8.40;;;6.50;;
69551;SDS011;63774;45.292;11.784;2024-01-30T04:42:46;9.20;;;6.80;;
69551;SDS011;63774;45.292;11.784;2024-01-30T04:45:12;9.70;;;6.70;;
69551;SDS011;63774;45.292;11.784;2024-01-30T04:47:37;10.10;;;6.70;;
69551;SDS011;63774;45.292;11.784;2024-01-30T04:50:04;8.90;;;7.00;;
69551;SDS011;63774;45.292;11.784;2024-01-30T04:52:31;9.20;;;6.70;;
69551;SDS011;63774;45.292;11.784;2024-01-30T04:54:57;8.40;;;6.60;;
69551;SDS011;63774;45.292;11.784;2024-01-30T04:57:22;8.60;;;6.50;;
69551;SDS011;63774;45.292;11.784;2024-01-30T04:59:48;9.30;;;6.70;;
69551;SDS011;63774;45.292;11.784;2024-01-30T05:02:14;8.50;;;6.50;;
69551;SDS011;63774;45.292;11.784;2024-01-30T05:04:40;8.90;;;6.60;;
69551;SDS011;63774;45.292;11.784;2024-01-30T05:07:06;8.90;;;6.30;;
69551;SDS011;63774;45.292;11.784;2024-01-30T05:09:32;8.70;;;6.70;;
69551;SDS011;63774;45.292;11.784;2024-01-30T05:11:57;9.70;;;7.40;;
69551;SDS011;63774;45.292;11.784;2024-01-30T05:14:23;9.20;;;6.70;;
69551;SDS011;63774;45.292;11.784;2024-01-30T05:16:49;8.60;;;6.60;;
69551;SDS011;63774;45.292;11.784;2024-01-30T05:19:15;7.90;;;6.50;;
69551;SDS011;63774;45.292;11.784;2024-01-30T05:21:41;9.20;;;6.90;;
69551;SDS011;63774;45.292;11.784;2024-01-30T05:24:07;8.60;;;6.40;;
69551;SDS011;63774;45.292;11.784;2024-01-30T05:26:34;9.20;;;6.30;;
69551;SDS011;63774;45.292;11.784;2024-01-30T05:29:00;8.80;;;6.60;;
69551;SDS011;63774;45.292;11.784;2024-01-30T05:31:25;9.00;;;6.40;;
69551;SDS011;63774;45.292;11.784;2024-01-30T05:33:52;8.70;;;6.70;;
69551;SDS011;63774;45.292;11.784;2024-01-30T05:36:18;9.20;;;6.80;;
69551;SDS011;63774;45.292;11.784;2024-01-30T05:38:43;8.30;;;6.40;;
69551;SDS011;63774;45.292;11.784;2024-01-30T05:41:08;8.60;;;6.20;;
69551;SDS011;63774;45.292;11.784;2024-01-30T05:43:34;8.10;;;6.00;;
69551;SDS011;63774;45.292;11.784;2024-01-30T05:46:00;8.30;;;6.50;;
69551;SDS011;63774;45.292;11.784;2024-01-30T05:48:25;8.90;;;6.50;;
69551;SDS011;63774;45.292;11.784;2024-01-30T05:50:51;9.10;;;6.50;;
69551;SDS011;63774;45.292;11.784;2024-01-30T05:53:17;9.90;;;6.90;;
69551;SDS011;63774;45.292;11.784;2024-01-30T05:55:42;9.30;;;6.40;;
69551;SDS011;63774;45.292;11.784;2024-01-30T05:58:08;8.40;;;6.30;;
69551;SDS011;63774;45.292;11.784;2024-01-30T06:00:33;9.10;;;6.10;;
69551;SDS011;63774;45.292;11.784;2024-01-30T06:02:59;8.60;;;6.60;;
69551;SDS011;63774;45.292;11.784;2024-01-30T06:05:24;8.50;;;6.10;;
69551;SDS011;63774;45.292;11.784;2024-01-30T06:07:50;8.50;;;6.50;;
69551;SDS011;63774;45.292;11.784;2024-01-30T06:10:15;8.80;;;6.60;;
69551;SDS011;63774;45.292;11.784;2024-01-30T06:12:41;8.10;;;6.40;;
69551;SDS011;63774;45.292;11.784;2024-01-30T06:15:06;7.40;;;5.80;;
69551;SDS011;63774;45.292;11.784;2024-01-30T06:17:32;8.30;;;6.40;;
69551;SDS011;63774;45.292;11.784;2024-01-30T06:19:58;8.10;;;5.70;;
69551;SDS011;63774;45.292;11.784;2024-01-30T06:22:24;8.70;;;6.70;;
69551;SDS011;63774;45.292;11.784;2024-01-30T06:24:50;8.80;;;6.40;;
69551;SDS011;63774;45.292;11.784;2024-01-30T06:27:15;8.30;;;6.10;;
69551;SDS011;63774;45.292;11.784;2024-01-30T06:29:42;8.80;;;6.10;;
69551;SDS011;63774;45.292;11.784;2024-01-30T06:32:08;8.30;;;6.30;;
69551;SDS011;63774;45.292;11.784;2024-01-30T06:34:34;8.90;;;6.20;;
69551;SDS011;63774;45.292;11.784;2024-01-30T06:36:59;8.20;;;5.90;;
69551;SDS011;63774;45.292;11.784;2024-01-30T06:39:26;8.20;;;6.00;;
69551;SDS011;63774;45.292;11.784;2024-01-30T06:41:52;7.80;;;6.00;;
69551;SDS011;63774;45.292;11.784;2024-01-30T06:44:17;8.00;;;6.00;;
69551;SDS011;63774;45.292;11.784;2024-01-30T06:46:43;8.80;;;6.40;;
69551;SDS011;63774;45.292;11.784;2024-01-30T06:49:08;8.00;;;6.00;;
69551;SDS011;63774;45.292;11.784;2024-01-30T06:51:34;9.90;;;6.50;;
69551;SDS011;63774;45.292;11.784;2024-01-30T06:53:59;9.90;;;6.60;;
69551;SDS011;63774;45.292;11.784;2024-01-30T06:56:25;7.90;;;6.00;;
69551;SDS011;63774;45.292;11.784;2024-01-30T06:58:50;8.70;;;6.20;;
69551;SDS011;63774;45.292;11.784;2024-01-30T07:01:16;8.30;;;6.20;;
69551;SDS011;63774;45.292;11.784;2024-01-30T07:03:42;8.70;;;6.20;;
69551;SDS011;63774;45.292;11.784;2024-01-30T07:06:08;8.30;;;6.30;;
69551;SDS011;63774;45.292;11.784;2024-01-30T07:08:34;8.30;;;6.30;;
69551;SDS011;63774;45.292;11.784;2024-01-30T07:10:59;8.10;;;6.10;;
69551;SDS011;63774;45.292;11.784;2024-01-30T07:13:25;8.30;;;6.20;;
69551;SDS011;63774;45.292;11.784;2024-01-30T07:15:51;8.30;;;6.70;;
69551;SDS011;63774;45.292;11.784;2024-01-30T07:18:16;9.50;;;6.50;;
69551;SDS011;63774;45.292;11.784;2024-01-30T07:20:41;8.90;;;6.70;;
69551;SDS011;63774;45.292;11.784;2024-01-30T07:23:14;8.60;;;6.20;;
69551;SDS011;63774;45.292;11.784;2024-01-30T07:25:43;9.70;;;6.40;;
69551;SDS011;63774;45.292;11.784;2024-01-30T07:28:13;10.00;;;6.60;;
69551;SDS011;63774;45.292;11.784;2024-01-30T07:30:41;8.60;;;6.60;;
69551;SDS011;63774;45.292;11.784;2024-01-30T07:33:07;9.90;;;6.80;;
69551;SDS011;63774;45.292;11.784;2024-01-30T07:35:34;8.80;;;6.30;;
69551;SDS011;63774;45.292;11.784;2024-01-30T07:38:00;9.30;;;6.80;;
69551;SDS011;63774;45.292;11.784;2024-01-30T07:40:25;10.10;;;7.00;;
69551;SDS011;63774;45.292;11.784;2024-01-30T07:42:50;10.20;;;6.50;;
69551;SDS011;63774;45.292;11.784;2024-01-30T07:45:16;9.70;;;7.00;;
69551;SDS011;63774;45.292;11.784;2024-01-30T07:47:41;8.80;;;6.30;;
69551;SDS011;63774;45.292;11.784;2024-01-30T07:50:07;9.20;;;6.50;;
69551;SDS011;63774;45.292;11.784;2024-01-30T07:52:34;9.70;;;6.90;;
69551;SDS011;63774;45.292;11.784;2024-01-30T07:54:59;11.00;;;6.50;;
69551;SDS011;63774;45.292;11.784;2024-01-30T07:57:25;9.30;;;6.80;;
69551;SDS011;63774;45.292;11.784;2024-01-30T07:59:50;8.90;;;6.30;;
69551;SDS011;63774;45.292;11.784;2024-01-30T08:02:16;8.70;;;6.30;;
69551;SDS011;63774;45.292;11.784;2024-01-30T08:04:41;10.50;;;6.70;;
69551;SDS011;63774;45.292;11.784;2024-01-30T08:07:06;8.30;;;6.20;;
69551;SDS011;63774;45.292;11.784;2024-01-30T08:09:32;9.50;;;6.60;;
69551;SDS011;63774;45.292;11.784;2024-01-30T08:11:57;8.60;;;6.60;;
69551;SDS011;63774;45.292;11.784;2024-01-30T08:14:23;9.70;;;6.70;;
69551;SDS011;63774;45.292;11.784;2024-01-30T08:16:48;9.10;;;6.50;;
69551;SDS011;63774;45.292;11.784;2024-01-30T08:19:14;8.70;;;6.30;;
69551;SDS011;63774;45.292;11.784;2024-01-30T08:21:40;9.40;;;6.50;;
69551;SDS011;63774;45.292;11.784;2024-01-30T08:24:06;8.60;;;6.40;;
69551;SDS011;63774;45.292;11.784;2024-01-30T08:26:32;9.20;;;6.30;;
69551;SDS011;63774;45.292;11.784;2024-01-30T08:28:58;9.00;;;6.40;;
69551;SDS011;63774;45.292;11.784;2024-01-30T08:31:24;9.20;;;6.50;;
69551;SDS011;63774;45.292;11.784;2024-01-30T08:33:50;9.00;;;6.60;;
69551;SDS011;63774;45.292;11.784;2024-01-30T08:36:16;9.00;;;6.60;;
69551;SDS011;63774;45.292;11.784;2024-01-30T08:38:42;10.10;;;6.60;;
69551;SDS011;63774;45.292;11.784;2024-01-30T08:41:07;8.80;;;6.80;;
69551;SDS011;63774;45.292;11.784;2024-01-30T08:43:33;8.90;;;6.30;;
69551;SDS011;63774;45.292;11.784;2024-01-30T08:45:59;9.20;;;6.70;;
69551;SDS011;63774;45.292;11.784;2024-01-30T08:48:25;9.30;;;6.60;;
69551;SDS011;63774;45.292;11.784;2024-01-30T08:50:51;8.80;;;6.40;;
69551;SDS011;63774;45.292;11.784;2024-01-30T08:53:16;9.60;;;6.50;;
69551;SDS011;63774;45.292;11.784;2024-01-30T08:55:42;9.00;;;6.40;;
69551;SDS011;63774;45.292;11.784;2024-01-30T08:58:07;9.80;;;6.40;;
69551;SDS011;63774;45.292;11.784;2024-01-30T09:00:33;10.00;;;7.10;;
69551;SDS011;63774;45.292;11.784;2024-01-30T09:02:58;10.80;;;7.00;;
69551;SDS011;63774;45.292;11.784;2024-01-30T09:05:24;9.70;;;6.70;;
69551;SDS011;63774;45.292;11.784;2024-01-30T09:07:49;9.40;;;6.20;;
69551;SDS011;63774;45.292;11.784;2024-01-30T09:10:15;9.40;;;7.00;;
69551;SDS011;63774;45.292;11.784;2024-01-30T09:12:40;8.90;;;6.50;;
69551;SDS011;63774;45.292;11.784;2024-01-30T09:15:06;10.70;;;6.60;;
69551;SDS011;63774;45.292;11.784;2024-01-30T09:17:32;9.30;;;6.90;;
69551;SDS011;63774;45.292;11.784;2024-01-30T09:19:58;10.20;;;6.70;;
69551;SDS011;63774;45.292;11.784;2024-01-30T09:22:24;9.20;;;6.50;;
69551;SDS011;63774;45.292;11.784;2024-01-30T09:24:51;9.70;;;6.90;;
69551;SDS011;63774;45.292;11.784;2024-01-30T09:27:17;10.20;;;6.50;;
69551;SDS011;63774;45.292;11.784;2024-01-30T09:29:43;9.90;;;6.60;;
69551;SDS011;63774;45.292;11.784;2024-01-30T09:32:08;9.60;;;6.50;;
69551;SDS011;63774;45.292;11.784;2024-01-30T09:34:34;10.10;;;6.80;;
69551;SDS011;63774;45.292;11.784;2024-01-30T09:36:59;9.20;;;6.90;;
69551;SDS011;63774;45.292;11.784;2024-01-30T09:39:25;9.80;;;6.30;;
69551;SDS011;63774;45.292;11.784;2024-01-30T09:41:56;9.40;;;6.60;;
69551;SDS011;63774;45.292;11.784;2024-01-30T09:45:04;9.90;;;6.40;;
69551;SDS011;63774;45.292;11.784;2024-01-30T09:47:40;9.80;;;6.50;;
69551;SDS011;63774;45.292;11.784;2024-01-30T09:50:11;10.30;;;7.00;;
69551;SDS011;63774;45.292;11.784;2024-01-30T09:52:37;10.00;;;7.00;;
69551;SDS011;63774;45.292;11.784;2024-01-30T09:55:04;10.00;;;6.80;;
69551;SDS011;63774;45.292;11.784;2024-01-30T09:57:31;11.00;;;6.80;;
69551;SDS011;63774;45.292;11.784;2024-01-30T09:59:56;10.50;;;6.90;;
69551;SDS011;63774;45.292;11.784;2024-01-30T10:02:22;9.60;;;6.90;;
69551;SDS011;63774;45.292;11.784;2024-01-30T10:04:49;9.50;;;6.90;;
69551;SDS011;63774;45.292;11.784;2024-01-30T10:07:15;11.40;;;7.40;;
69551;SDS011;63774;45.292;11.784;2024-01-30T10:09:42;9.80;;;6.80;;
69551;SDS011;63774;45.292;11.784;2024-01-30T10:12:08;10.70;;;6.90;;
69551;SDS011;63774;45.292;11.784;2024-01-30T10:14:37;9.50;;;6.50;;
69551;SDS011;63774;45.292;11.784;2024-01-30T10:17:12;9.50;;;6.70;;
69551;SDS011;63774;45.292;11.784;2024-01-30T10:19:41;10.30;;;6.90;;
69551;SDS011;63774;45.292;11.784;2024-01-30T10:22:07;9.90;;;7.20;;
69551;SDS011;63774;45.292;11.784;2024-01-30T10:24:34;10.80;;;6.90;;
69551;SDS011;63774;45.292;11.784;2024-01-30T10:27:00;10.40;;;7.10;;
69551;SDS011;63774;45.292;11.784;2024-01-30T10:29:26;9.70;;;6.60;;
69551;SDS011;63774;45.292;11.784;2024-01-30T10:34:28;9.10;;;6.40;;
69551;SDS011;63774;45.292;11.784;2024-01-30T10:37:00;8.30;;;6.00;;
69551;SDS011;63774;45.292;11.784;2024-01-30T10:39:43;9.20;;;6.20;;
69551;SDS011;63774;45.292;11.784;2024-01-30T10:42:13;9.80;;;6.30;;
69551;SDS011;63774;45.292;11.784;2024-01-30T10:45:02;8.50;;;6.10;;
69551;SDS011;63774;45.292;11.784;2024-01-30T10:47:35;9.00;;;6.30;;
69551;SDS011;63774;45.292;11.784;2024-01-30T10:50:03;10.20;;;6.80;;
69551;SDS011;63774;45.292;11.784;2024-01-30T10:52:30;9.20;;;6.60;;
69551;SDS011;63774;45.292;11.784;2024-01-30T10:54:57;12.20;;;7.60;;
69551;SDS011;63774;45.292;11.784;2024-01-30T10:57:25;9.60;;;6.60;;
69551;SDS011;63774;45.292;11.784;2024-01-30T11:00:01;11.80;;;6.80;;
69551;SDS011;63774;45.292;11.784;2024-01-30T11:02:30;8.40;;;6.10;;
69551;SDS011;63774;45.292;11.784;2024-01-30T11:04:58;9.40;;;6.60;;
69551;SDS011;63774;45.292;11.784;2024-01-30T11:07:25;9.20;;;6.40;;
69551;SDS011;63774;45.292;11.784;2024-01-30T11:12:27;9.60;;;6.60;;
69551;SDS011;63774;45.292;11.784;2024-01-30T11:15:08;10.00;;;6.70;;
69551;SDS011;63774;45.292;11.784;2024-01-30T11:20:09;10.20;;;6.40;;
69551;SDS011;63774;45.292;11.784;2024-01-30T11:22:56;10.70;;;6.60;;
69551;SDS011;63774;45.292;11.784;2024-01-30T11:25:22;9.00;;;6.20;;
69551;SDS011;63774;45.292;11.784;2024-01-30T11:27:49;9.20;;;6.30;;
69551;SDS011;63774;45.292;11.784;2024-01-30T11:30:23;11.80;;;6.50;;
69551;SDS011;63774;45.292;11.784;2024-01-30T11:33:00;9.20;;;6.50;;
69551;SDS011;63774;45.292;11.784;2024-01-30T11:35:43;8.90;;;6.40;;
69551;SDS011;63774;45.292;11.784;2024-01-30T11:38:14;9.40;;;6.50;;
69551;SDS011;63774;45.292;11.784;2024-01-30T11:40:41;9.20;;;6.60;;
69551;SDS011;63774;45.292;11.784;2024-01-30T11:43:07;9.50;;;6.90;;
69551;SDS011;63774;45.292;11.784;2024-01-30T11:45:34;8.60;;;5.90;;
69551;SDS011;63774;45.292;11.784;2024-01-30T11:48:00;9.20;;;6.50;;
69551;SDS011;63774;45.292;11.784;2024-01-30T11:50:28;9.90;;;6.50;;
69551;SDS011;63774;45.292;11.784;2024-01-30T11:52:54;9.30;;;6.40;;
69551;SDS011;63774;45.292;11.784;2024-01-30T11:55:20;10.70;;;6.50;;
69551;SDS011;63774;45.292;11.784;2024-01-30T11:57:46;8.90;;;6.20;;
69551;SDS011;63774;45.292;11.784;2024-01-30T12:00:17;9.60;;;6.20;;
69551;SDS011;63774;45.292;11.784;2024-01-30T12:02:44;9.90;;;6.50;;
69551;SDS011;63774;45.292;11.784;2024-01-30T12:05:15;9.90;;;6.30;;
69551;SDS011;63774;45.292;11.784;2024-01-30T12:07:43;11.00;;;6.40;;
69551;SDS011;63774;45.292;11.784;2024-01-30T12:10:09;8.60;;;6.00;;
69551;SDS011;63774;45.292;11.784;2024-01-30T12:12:36;11.50;;;6.90;;
69551;SDS011;63774;45.292;11.784;2024-01-30T12:15:02;10.10;;;6.70;;
69551;SDS011;63774;45.292;11.784;2024-01-30T12:17:29;10.50;;;5.90;;
69551;SDS011;63774;45.292;11.784;2024-01-30T12:22:41;10.00;;;6.50;;
69551;SDS011;63774;45.292;11.784;2024-01-30T12:25:11;10.70;;;6.80;;
69551;SDS011;63774;45.292;11.784;2024-01-30T12:27:39;16.20;;;7.60;;
69551;SDS011;63774;45.292;11.784;2024-01-30T12:30:07;14.10;;;8.00;;
69551;SDS011;63774;45.292;11.784;2024-01-30T12:32:42;19.30;;;9.00;;
69551;SDS011;63774;45.292;11.784;2024-01-30T12:35:11;23.90;;;10.40;;
69551;SDS011;63774;45.292;11.784;2024-01-30T12:37:44;26.30;;;11.20;;
69551;SDS011;63774;45.292;11.784;2024-01-30T12:40:10;26.90;;;10.30;;
69551;SDS011;63774;45.292;11.784;2024-01-30T12:42:39;31.50;;;12.30;;
69551;SDS011;63774;45.292;11.784;2024-01-30T12:45:08;34.60;;;12.10;;
69551;SDS011;63774;45.292;11.784;2024-01-30T12:47:34;36.20;;;13.70;;
69551;SDS011;63774;45.292;11.784;2024-01-30T12:50:00;38.40;;;14.10;;
69551;SDS011;63774;45.292;11.784;2024-01-30T12:52:25;36.00;;;13.70;;
69551;SDS011;63774;45.292;11.784;2024-01-30T12:54:51;35.30;;;14.30;;
69551;SDS011;63774;45.292;11.784;2024-01-30T12:57:17;44.40;;;14.80;;
69551;SDS011;63774;45.292;11.784;2024-01-30T12:59:46;39.10;;;15.20;;
69551;SDS011;63774;45.292;11.784;2024-01-30T13:02:12;41.00;;;14.90;;
69551;SDS011;63774;45.292;11.784;2024-01-30T13:04:38;40.50;;;15.00;;
69551;SDS011;63774;45.292;11.784;2024-01-30T13:07:05;39.50;;;15.20;;
69551;SDS011;63774;45.292;11.784;2024-01-30T13:09:30;37.20;;;14.70;;
69551;SDS011;63774;45.292;11.784;2024-01-30T13:11:59;39.90;;;15.60;;
69551;SDS011;63774;45.292;11.784;2024-01-30T13:14:27;42.10;;;16.00;;
69551;SDS011;63774;45.292;11.784;2024-01-30T13:16:53;38.30;;;14.40;;
69551;SDS011;63774;45.292;11.784;2024-01-30T13:19:18;40.60;;;15.40;;
69551;SDS011;63774;45.292;11.784;2024-01-30T13:21:44;40.50;;;15.00;;
69551;SDS011;63774;45.292;11.784;2024-01-30T13:24:09;42.80;;;15.80;;
69551;SDS011;63774;45.292;11.784;2024-01-30T13:26:35;41.50;;;14.70;;
69551;SDS011;63774;45.292;11.784;2024-01-30T13:29:01;40.30;;;15.20;;
69551;SDS011;63774;45.292;11.784;2024-01-30T13:31:27;42.60;;;16.10;;
69551;SDS011;63774;45.292;11.784;2024-01-30T13:33:53;40.30;;;14.60;;
69551;SDS011;63774;45.292;11.784;2024-01-30T13:36:19;38.60;;;15.40;;
69551;SDS011;63774;45.292;11.784;2024-01-30T13:38:45;42.10;;;16.40;;
69551;SDS011;63774;45.292;11.784;2024-01-30T13:41:11;41.80;;;15.30;;
69551;SDS011;63774;45.292;11.784;2024-01-30T13:43:36;42.90;;;15.60;;
69551;SDS011;63774;45.292;11.784;2024-01-30T13:46:02;38.00;;;15.40;;
69551;SDS011;63774;45.292;11.784;2024-01-30T13:48:28;43.60;;;15.70;;
69551;SDS011;63774;45.292;11.784;2024-01-30T13:50:54;38.40;;;15.40;;
69551;SDS011;63774;45.292;11.784;2024-01-30T13:53:20;34.20;;;14.40;;
69551;SDS011;63774;45.292;11.784;2024-01-30T13:55:46;38.60;;;14.70;;
69551;SDS011;63774;45.292;11.784;2024-01-30T13:58:12;42.30;;;15.80;;
69551;SDS011;63774;45.292;11.784;2024-01-30T14:00:37;39.40;;;15.60;;
69551;SDS011;63774;45.292;11.784;2024-01-30T14:03:03;38.70;;;15.20;;
69551;SDS011;63774;45.292;11.784;2024-01-30T14:05:29;42.80;;;15.50;;
69551;SDS011;63774;45.292;11.784;2024-01-30T14:07:55;33.00;;;14.80;;
69551;SDS011;63774;45.292;11.784;2024-01-30T14:10:21;36.80;;;14.70;;
69551;SDS011;63774;45.292;11.784;2024-01-30T14:12:46;38.10;;;15.40;;
69551;SDS011;63774;45.292;11.784;2024-01-30T14:15:13;38.20;;;14.10;;
69551;SDS011;63774;45.292;11.784;2024-01-30T14:17:40;35.50;;;14.90;;
69551;SDS011;63774;45.292;11.784;2024-01-30T14:20:06;36.20;;;14.50;;
69551;SDS011;63774;45.292;11.784;2024-01-30T14:22:33;35.50;;;13.60;;
69551;SDS011;63774;45.292;11.784;2024-01-30T14:24:59;39.80;;;14.00;;
69551;SDS011;63774;45.292;11.784;2024-01-30T14:27:25;34.80;;;14.10;;
69551;SDS011;63774;45.292;11.784;2024-01-30T14:29:50;34.70;;;13.70;;
69551;SDS011;63774;45.292;11.784;2024-01-30T14:32:16;31.50;;;14.00;;